sensor_id;sensor_type;location;lat;lon;timestamp;temperature;humidity
19968;DHT22;10145;49.152;9.282;2023-01-28T00:01:11;1.70;99.90
19968;DHT22;10145;49.152;9.282;2023-01-28T00:03:37;1.70;99.90
19968;DHT22;10145;49.152;9.282;2023-01-28T00:06:06;1.70;99.90
19968;DHT22;10145;49.152;9.282;2023-01-28T00:08:32;1.70;99.90
19968;DHT22;10145;49.152;9.282;2023-01-28T00:11:02;1.60;99.90
19968;DHT22;10145;49.152;9.282;2023-01-28T00:13:28;1.60;99.90
19968;DHT22;10145;49.152;9.282;2023-01-28T00:15:58;1.60;99.90
19968;DHT22;10145;49.152;9.282;2023-01-28T00:18:26;1.70;99.90
19968;DHT22;10145;49.152;9.282;2023-01-28T00:20:59;1.70;99.90
19968;DHT22;10145;49.152;9.282;2023-01-28T00:23:30;1.70;99.90
19968;DHT22;10145;49.152;9.282;2023-01-28T00:26:00;1.70;99.90
19968;DHT22;10145;49.152;9.282;2023-01-28T00:28:26;1.70;99.90
19968;DHT22;10145;49.152;9.282;2023-01-28T00:30:52;1.70;99.90
19968;DHT22;10145;49.152;9.282;2023-01-28T00:33:18;1.70;99.90
19968;DHT22;10145;49.152;9.282;2023-01-28T00:35:43;1.70;99.90
19968;DHT22;10145;49.152;9.282;2023-01-28T00:38:09;1.60;99.90
19968;DHT22;10145;49.152;9.282;2023-01-28T00:40:35;1.60;99.90
19968;DHT22;10145;49.152;9.282;2023-01-28T00:43:01;1.60;99.90
19968;DHT22;10145;49.152;9.282;2023-01-28T00:45:27;1.60;99.90
19968;DHT22;10145;49.152;9.282;2023-01-28T00:47:52;1.60;99.90
19968;DHT22;10145;49.152;9.282;2023-01-28T00:50:18;1.60;99.90
19968;DHT22;10145;49.152;9.282;2023-01-28T00:52:46;1.60;99.90
19968;DHT22;10145;49.152;9.282;2023-01-28T00:55:11;1.70;99.90
19968;DHT22;10145;49.152;9.282;2023-01-28T00:57:37;1.70;99.90
19968;DHT22;10145;49.152;9.282;2023-01-28T01:00:03;1.70;99.90
19968;DHT22;10145;49.152;9.282;2023-01-28T01:02:29;1.70;99.90
19968;DHT22;10145;49.152;9.282;2023-01-28T01:04:55;1.70;99.90
19968;DHT22;10145;49.152;9.282;2023-01-28T01:07:26;1.70;99.90
19968;DHT22;10145;49.152;9.282;2023-01-28T01:10:12;1.70;99.90
19968;DHT22;10145;49.152;9.282;2023-01-28T01:12:38;1.70;99.90
19968;DHT22;10145;49.152;9.282;2023-01-28T01:15:04;1.70;99.90
19968;DHT22;10145;49.152;9.282;2023-01-28T01:17:38;1.70;99.90
19968;DHT22;10145;49.152;9.282;2023-01-28T01:20:07;1.70;99.90
19968;DHT22;10145;49.152;9.282;2023-01-28T01:22:34;1.80;99.90
19968;DHT22;10145;49.152;9.282;2023-01-28T01:25:00;1.80;99.90
19968;DHT22;10145;49.152;9.282;2023-01-28T01:27:25;1.80;99.90
19968;DHT22;10145;49.152;9.282;2023-01-28T01:29:51;1.80;99.90
19968;DHT22;10145;49.152;9.282;2023-01-28T01:32:16;1.80;99.90
19968;DHT22;10145;49.152;9.282;2023-01-28T01:34:43;1.80;99.90
19968;DHT22;10145;49.152;9.282;2023-01-28T01:37:08;1.80;99.90
19968;DHT22;10145;49.152;9.282;2023-01-28T01:39:35;1.80;99.90
19968;DHT22;10145;49.152;9.282;2023-01-28T01:42:00;1.80;99.90
19968;DHT22;10145;49.152;9.282;2023-01-28T01:44:58;1.80;99.90
19968;DHT22;10145;49.152;9.282;2023-01-28T01:52:55;1.90;99.90
19968;DHT22;10145;49.152;9.282;2023-01-28T01:55:24;1.90;99.90
19968;DHT22;10145;49.152;9.282;2023-01-28T01:57:51;1.90;99.90
19968;DHT22;10145;49.152;9.282;2023-01-28T02:00:18;1.90;99.90
19968;DHT22;10145;49.152;9.282;2023-01-28T02:02:46;1.90;99.90
19968;DHT22;10145;49.152;9.282;2023-01-28T02:05:16;1.90;99.90
19968;DHT22;10145;49.152;9.282;2023-01-28T02:07:44;1.90;99.90
19968;DHT22;10145;49.152;9.282;2023-01-28T02:10:11;1.90;99.90
19968;DHT22;10145;49.152;9.282;2023-01-28T02:12:41;1.90;99.90
19968;DHT22;10145;49.152;9.282;2023-01-28T02:15:10;1.90;99.90
19968;DHT22;10145;49.152;9.282;2023-01-28T02:17:37;1.80;99.90
19968;DHT22;10145;49.152;9.282;2023-01-28T02:20:15;1.90;99.90
19968;DHT22;10145;49.152;9.282;2023-01-28T02:29:14;1.80;99.90
19968;DHT22;10145;49.152;9.282;2023-01-28T02:37:20;1.90;99.90
19968;DHT22;10145;49.152;9.282;2023-01-28T02:39:53;1.80;99.90
19968;DHT22;10145;49.152;9.282;2023-01-28T02:42:28;1.80;99.90
19968;DHT22;10145;49.152;9.282;2023-01-28T02:44:54;1.80;99.90
19968;DHT22;10145;49.152;9.282;2023-01-28T02:47:20;1.80;99.90
19968;DHT22;10145;49.152;9.282;2023-01-28T02:50:08;1.80;99.90
19968;DHT22;10145;49.152;9.282;2023-01-28T02:58:38;1.80;99.90
19968;DHT22;10145;49.152;9.282;2023-01-28T03:04:00;1.80;99.90
19968;DHT22;10145;49.152;9.282;2023-01-28T03:06:31;1.80;99.90
19968;DHT22;10145;49.152;9.282;2023-01-28T03:09:02;1.90;99.90
19968;DHT22;10145;49.152;9.282;2023-01-28T03:14:38;1.90;99.90
19968;DHT22;10145;49.152;9.282;2023-01-28T03:17:46;1.90;99.90
19968;DHT22;10145;49.152;9.282;2023-01-28T03:20:53;1.90;99.90
19968;DHT22;10145;49.152;9.282;2023-01-28T03:24:29;1.90;99.90
19968;DHT22;10145;49.152;9.282;2023-01-28T03:27:11;1.90;99.90
19968;DHT22;10145;49.152;9.282;2023-01-28T03:29:59;1.90;99.90
19968;DHT22;10145;49.152;9.282;2023-01-28T03:32:45;1.90;99.90
19968;DHT22;10145;49.152;9.282;2023-01-28T03:35:32;1.90;99.90
19968;DHT22;10145;49.152;9.282;2023-01-28T03:38:19;1.90;99.90
19968;DHT22;10145;49.152;9.282;2023-01-28T03:40:59;1.90;99.90
19968;DHT22;10145;49.152;9.282;2023-01-28T03:43:25;1.90;99.90
19968;DHT22;10145;49.152;9.282;2023-01-28T03:45:51;1.90;99.90
19968;DHT22;10145;49.152;9.282;2023-01-28T03:48:22;1.90;99.90
19968;DHT22;10145;49.152;9.282;2023-01-28T03:50:48;1.80;99.90
19968;DHT22;10145;49.152;9.282;2023-01-28T03:53:15;1.80;99.90
19968;DHT22;10145;49.152;9.282;2023-01-28T03:55:41;1.80;99.90
19968;DHT22;10145;49.152;9.282;2023-01-28T03:58:08;1.80;99.90
19968;DHT22;10145;49.152;9.282;2023-01-28T04:00:34;1.80;99.90
19968;DHT22;10145;49.152;9.282;2023-01-28T04:03:16;1.80;99.90
19968;DHT22;10145;49.152;9.282;2023-01-28T04:06:02;1.70;99.90
19968;DHT22;10145;49.152;9.282;2023-01-28T04:08:28;1.70;99.90
19968;DHT22;10145;49.152;9.282;2023-01-28T04:10:54;1.70;99.90
19968;DHT22;10145;49.152;9.282;2023-01-28T04:13:20;1.60;99.90
19968;DHT22;10145;49.152;9.282;2023-01-28T04:15:46;1.60;99.90
19968;DHT22;10145;49.152;9.282;2023-01-28T04:18:12;1.60;99.90
19968;DHT22;10145;49.152;9.282;2023-01-28T04:20:38;1.60;99.90
19968;DHT22;10145;49.152;9.282;2023-01-28T04:23:04;1.50;99.90
19968;DHT22;10145;49.152;9.282;2023-01-28T04:25:31;1.50;99.90
19968;DHT22;10145;49.152;9.282;2023-01-28T04:27:56;1.50;99.90
19968;DHT22;10145;49.152;9.282;2023-01-28T04:30:22;1.50;99.90
19968;DHT22;10145;49.152;9.282;2023-01-28T04:32:48;1.40;99.90
19968;DHT22;10145;49.152;9.282;2023-01-28T04:35:17;1.40;99.90
19968;DHT22;10145;49.152;9.282;2023-01-28T04:37:43;1.40;99.90
19968;DHT22;10145;49.152;9.282;2023-01-28T04:40:10;1.30;99.90
19968;DHT22;10145;49.152;9.282;2023-01-28T04:42:36;1.30;99.90
19968;DHT22;10145;49.152;9.282;2023-01-28T04:45:02;1.30;99.90
19968;DHT22;10145;49.152;9.282;2023-01-28T04:47:28;1.30;99.90
19968;DHT22;10145;49.152;9.282;2023-01-28T04:49:53;1.30;99.90
19968;DHT22;10145;49.152;9.282;2023-01-28T04:52:19;1.30;99.90
19968;DHT22;10145;49.152;9.282;2023-01-28T04:54:45;1.20;99.90
19968;DHT22;10145;49.152;9.282;2023-01-28T04:57:10;1.20;99.90
19968;DHT22;10145;49.152;9.282;2023-01-28T04:59:36;1.20;99.90
19968;DHT22;10145;49.152;9.282;2023-01-28T05:02:01;1.10;99.90
19968;DHT22;10145;49.152;9.282;2023-01-28T05:04:27;1.10;99.90
19968;DHT22;10145;49.152;9.282;2023-01-28T05:06:52;1.10;99.90
19968;DHT22;10145;49.152;9.282;2023-01-28T05:09:18;1.10;99.90
19968;DHT22;10145;49.152;9.282;2023-01-28T05:11:44;1.10;99.90
19968;DHT22;10145;49.152;9.282;2023-01-28T05:14:09;1.10;99.90
19968;DHT22;10145;49.152;9.282;2023-01-28T05:16:35;1.10;99.90
19968;DHT22;10145;49.152;9.282;2023-01-28T05:19:01;1.10;99.90
19968;DHT22;10145;49.152;9.282;2023-01-28T05:21:27;1.10;99.90
19968;DHT22;10145;49.152;9.282;2023-01-28T05:23:53;1.10;99.90
19968;DHT22;10145;49.152;9.282;2023-01-28T05:26:19;1.10;99.90
19968;DHT22;10145;49.152;9.282;2023-01-28T05:28:45;1.10;99.90
19968;DHT22;10145;49.152;9.282;2023-01-28T05:31:10;1.10;99.90
19968;DHT22;10145;49.152;9.282;2023-01-28T05:33:36;1.10;99.90
19968;DHT22;10145;49.152;9.282;2023-01-28T05:36:03;1.10;99.90
19968;DHT22;10145;49.152;9.282;2023-01-28T05:38:28;1.20;99.90
19968;DHT22;10145;49.152;9.282;2023-01-28T05:40:54;1.20;99.90
19968;DHT22;10145;49.152;9.282;2023-01-28T05:43:20;1.20;99.90
19968;DHT22;10145;49.152;9.282;2023-01-28T05:45:46;1.20;99.90
19968;DHT22;10145;49.152;9.282;2023-01-28T05:48:12;1.20;99.90
19968;DHT22;10145;49.152;9.282;2023-01-28T05:50:37;1.20;99.90
19968;DHT22;10145;49.152;9.282;2023-01-28T05:53:06;1.20;99.90
19968;DHT22;10145;49.152;9.282;2023-01-28T05:55:32;1.20;99.90
19968;DHT22;10145;49.152;9.282;2023-01-28T05:57:57;1.20;99.90
19968;DHT22;10145;49.152;9.282;2023-01-28T06:00:23;1.20;99.90
19968;DHT22;10145;49.152;9.282;2023-01-28T06:02:50;1.20;99.90
19968;DHT22;10145;49.152;9.282;2023-01-28T06:05:17;1.20;99.90
19968;DHT22;10145;49.152;9.282;2023-01-28T06:07:46;1.20;99.90
19968;DHT22;10145;49.152;9.282;2023-01-28T06:10:13;1.20;99.90
19968;DHT22;10145;49.152;9.282;2023-01-28T06:12:39;1.20;99.90
19968;DHT22;10145;49.152;9.282;2023-01-28T06:15:05;1.30;99.90
19968;DHT22;10145;49.152;9.282;2023-01-28T06:17:31;1.20;99.90
19968;DHT22;10145;49.152;9.282;2023-01-28T06:19:56;1.20;99.90
19968;DHT22;10145;49.152;9.282;2023-01-28T06:22:22;1.20;99.90
19968;DHT22;10145;49.152;9.282;2023-01-28T06:24:47;1.20;99.90
19968;DHT22;10145;49.152;9.282;2023-01-28T06:27:13;1.20;99.90
19968;DHT22;10145;49.152;9.282;2023-01-28T06:29:38;1.20;99.90
19968;DHT22;10145;49.152;9.282;2023-01-28T06:32:04;1.20;99.90
19968;DHT22;10145;49.152;9.282;2023-01-28T06:34:30;1.20;99.90
19968;DHT22;10145;49.152;9.282;2023-01-28T06:36:56;1.10;99.90
19968;DHT22;10145;49.152;9.282;2023-01-28T06:39:21;1.20;99.90
19968;DHT22;10145;49.152;9.282;2023-01-28T06:41:50;1.20;99.90
19968;DHT22;10145;49.152;9.282;2023-01-28T06:44:16;1.20;99.90
19968;DHT22;10145;49.152;9.282;2023-01-28T06:46:41;1.20;99.90
19968;DHT22;10145;49.152;9.282;2023-01-28T06:49:07;1.20;99.90
19968;DHT22;10145;49.152;9.282;2023-01-28T06:51:32;1.30;99.90
19968;DHT22;10145;49.152;9.282;2023-01-28T06:53:58;1.20;99.90
19968;DHT22;10145;49.152;9.282;2023-01-28T06:56:24;1.20;99.90
19968;DHT22;10145;49.152;9.282;2023-01-28T06:58:50;1.30;99.90
19968;DHT22;10145;49.152;9.282;2023-01-28T07:01:16;1.20;99.90
19968;DHT22;10145;49.152;9.282;2023-01-28T07:03:41;1.20;99.90
19968;DHT22;10145;49.152;9.282;2023-01-28T07:06:07;1.30;99.90
19968;DHT22;10145;49.152;9.282;2023-01-28T07:08:33;1.30;99.90
19968;DHT22;10145;49.152;9.282;2023-01-28T07:10:58;1.20;99.90
19968;DHT22;10145;49.152;9.282;2023-01-28T07:13:25;1.30;99.90
19968;DHT22;10145;49.152;9.282;2023-01-28T07:15:50;1.40;99.90
19968;DHT22;10145;49.152;9.282;2023-01-28T07:18:16;1.30;99.90
19968;DHT22;10145;49.152;9.282;2023-01-28T07:20:42;1.40;99.90
19968;DHT22;10145;49.152;9.282;2023-01-28T07:23:07;1.40;99.90
19968;DHT22;10145;49.152;9.282;2023-01-28T07:25:33;1.40;99.90
19968;DHT22;10145;49.152;9.282;2023-01-28T07:27:58;1.50;99.90
19968;DHT22;10145;49.152;9.282;2023-01-28T07:30:24;1.50;99.90
19968;DHT22;10145;49.152;9.282;2023-01-28T07:32:58;1.40;99.90
19968;DHT22;10145;49.152;9.282;2023-01-28T07:35:25;1.50;99.90
19968;DHT22;10145;49.152;9.282;2023-01-28T07:37:52;1.50;99.90
19968;DHT22;10145;49.152;9.282;2023-01-28T07:40:18;1.50;99.90
19968;DHT22;10145;49.152;9.282;2023-01-28T07:42:43;1.50;99.90
19968;DHT22;10145;49.152;9.282;2023-01-28T07:45:09;1.60;99.90
19968;DHT22;10145;49.152;9.282;2023-01-28T07:47:35;1.60;99.90
19968;DHT22;10145;49.152;9.282;2023-01-28T07:50:01;1.60;99.90
19968;DHT22;10145;49.152;9.282;2023-01-28T07:52:26;1.50;99.90
19968;DHT22;10145;49.152;9.282;2023-01-28T07:54:52;1.50;99.90
19968;DHT22;10145;49.152;9.282;2023-01-28T07:57:17;1.50;99.90
19968;DHT22;10145;49.152;9.282;2023-01-28T07:59:48;1.60;99.90
19968;DHT22;10145;49.152;9.282;2023-01-28T08:02:15;1.60;99.90
19968;DHT22;10145;49.152;9.282;2023-01-28T08:04:41;1.60;99.90
19968;DHT22;10145;49.152;9.282;2023-01-28T08:07:06;1.60;99.90
19968;DHT22;10145;49.152;9.282;2023-01-28T08:09:32;1.70;99.90
19968;DHT22;10145;49.152;9.282;2023-01-28T08:12:00;1.70;99.90
19968;DHT22;10145;49.152;9.282;2023-01-28T08:14:27;1.80;99.90
19968;DHT22;10145;49.152;9.282;2023-01-28T08:16:52;1.70;99.90
19968;DHT22;10145;49.152;9.282;2023-01-28T08:19:18;1.80;99.90
19968;DHT22;10145;49.152;9.282;2023-01-28T08:21:49;1.80;99.90
19968;DHT22;10145;49.152;9.282;2023-01-28T08:24:15;1.90;99.90
19968;DHT22;10145;49.152;9.282;2023-01-28T08:26:40;2.00;99.90
19968;DHT22;10145;49.152;9.282;2023-01-28T08:29:06;2.00;99.90
19968;DHT22;10145;49.152;9.282;2023-01-28T08:31:31;2.10;99.90
19968;DHT22;10145;49.152;9.282;2023-01-28T08:33:57;2.10;99.90
19968;DHT22;10145;49.152;9.282;2023-01-28T08:36:22;2.20;99.90
19968;DHT22;10145;49.152;9.282;2023-01-28T08:38:52;2.10;99.90
19968;DHT22;10145;49.152;9.282;2023-01-28T08:41:22;2.20;99.90
19968;DHT22;10145;49.152;9.282;2023-01-28T08:43:48;2.20;99.90
19968;DHT22;10145;49.152;9.282;2023-01-28T08:46:14;2.10;99.90
19968;DHT22;10145;49.152;9.282;2023-01-28T08:48:39;2.10;99.90
19968;DHT22;10145;49.152;9.282;2023-01-28T08:51:05;2.20;99.90
19968;DHT22;10145;49.152;9.282;2023-01-28T08:53:31;2.20;99.90
19968;DHT22;10145;49.152;9.282;2023-01-28T08:55:56;2.20;99.90
19968;DHT22;10145;49.152;9.282;2023-01-28T08:58:22;2.10;99.90
19968;DHT22;10145;49.152;9.282;2023-01-28T09:00:48;2.10;99.90
19968;DHT22;10145;49.152;9.282;2023-01-28T09:03:15;2.20;99.90
19968;DHT22;10145;49.152;9.282;2023-01-28T09:05:41;2.10;99.90
19968;DHT22;10145;49.152;9.282;2023-01-28T09:08:16;2.20;99.90
19968;DHT22;10145;49.152;9.282;2023-01-28T09:10:42;2.20;99.90
19968;DHT22;10145;49.152;9.282;2023-01-28T09:13:13;2.20;99.90
19968;DHT22;10145;49.152;9.282;2023-01-28T09:15:40;2.20;99.90
19968;DHT22;10145;49.152;9.282;2023-01-28T09:18:06;2.20;99.90
19968;DHT22;10145;49.152;9.282;2023-01-28T09:20:32;2.20;99.90
19968;DHT22;10145;49.152;9.282;2023-01-28T09:22:59;2.20;99.90
19968;DHT22;10145;49.152;9.282;2023-01-28T09:25:25;2.20;99.90
19968;DHT22;10145;49.152;9.282;2023-01-28T09:27:50;2.20;99.90
19968;DHT22;10145;49.152;9.282;2023-01-28T09:30:16;2.30;99.90
19968;DHT22;10145;49.152;9.282;2023-01-28T09:32:42;2.30;99.90
19968;DHT22;10145;49.152;9.282;2023-01-28T09:35:08;2.30;99.90
19968;DHT22;10145;49.152;9.282;2023-01-28T09:37:34;2.30;99.90
19968;DHT22;10145;49.152;9.282;2023-01-28T09:40:00;2.20;99.90
19968;DHT22;10145;49.152;9.282;2023-01-28T09:45:35;2.20;99.90
19968;DHT22;10145;49.152;9.282;2023-01-28T09:48:04;2.10;99.90
19968;DHT22;10145;49.152;9.282;2023-01-28T09:50:35;2.10;99.90
19968;DHT22;10145;49.152;9.282;2023-01-28T09:53:24;2.00;99.90
19968;DHT22;10145;49.152;9.282;2023-01-28T09:58:16;2.00;99.90
19968;DHT22;10145;49.152;9.282;2023-01-28T10:10:04;2.20;99.90
19968;DHT22;10145;49.152;9.282;2023-01-28T10:17:49;2.50;99.90
19968;DHT22;10145;49.152;9.282;2023-01-28T10:20:24;2.60;99.90
19968;DHT22;10145;49.152;9.282;2023-01-28T10:23:34;2.70;99.90
19968;DHT22;10145;49.152;9.282;2023-01-28T10:25:58;2.80;99.90
19968;DHT22;10145;49.152;9.282;2023-01-28T10:28:26;2.70;99.90
19968;DHT22;10145;49.152;9.282;2023-01-28T10:30:53;2.70;99.90
19968;DHT22;10145;49.152;9.282;2023-01-28T10:35:47;2.60;99.90
19968;DHT22;10145;49.152;9.282;2023-01-28T10:38:15;2.60;99.90
19968;DHT22;10145;49.152;9.282;2023-01-28T10:40:42;2.70;99.90
19968;DHT22;10145;49.152;9.282;2023-01-28T10:43:08;2.70;99.90
19968;DHT22;10145;49.152;9.282;2023-01-28T10:45:46;2.80;99.90
19968;DHT22;10145;49.152;9.282;2023-01-28T10:48:21;2.70;99.90
19968;DHT22;10145;49.152;9.282;2023-01-28T10:50:55;2.60;99.90
19968;DHT22;10145;49.152;9.282;2023-01-28T10:53:37;2.70;99.90
19968;DHT22;10145;49.152;9.282;2023-01-28T10:56:22;2.70;99.90
19968;DHT22;10145;49.152;9.282;2023-01-28T10:59:06;2.80;99.90
19968;DHT22;10145;49.152;9.282;2023-01-28T11:01:54;2.80;99.90
19968;DHT22;10145;49.152;9.282;2023-01-28T11:04:32;2.80;99.90
19968;DHT22;10145;49.152;9.282;2023-01-28T11:09:36;2.70;99.90
19968;DHT22;10145;49.152;9.282;2023-01-28T11:12:16;2.80;99.90
19968;DHT22;10145;49.152;9.282;2023-01-28T11:14:52;2.70;99.90
19968;DHT22;10145;49.152;9.282;2023-01-28T11:17:19;2.70;99.90
19968;DHT22;10145;49.152;9.282;2023-01-28T11:19:45;2.80;99.90
19968;DHT22;10145;49.152;9.282;2023-01-28T11:22:32;2.70;99.90
19968;DHT22;10145;49.152;9.282;2023-01-28T11:25:02;2.60;99.90
19968;DHT22;10145;49.152;9.282;2023-01-28T11:27:30;2.70;99.90
19968;DHT22;10145;49.152;9.282;2023-01-28T11:29:57;2.60;99.90
19968;DHT22;10145;49.152;9.282;2023-01-28T11:32:27;2.50;99.90
19968;DHT22;10145;49.152;9.282;2023-01-28T11:34:54;2.50;99.90
19968;DHT22;10145;49.152;9.282;2023-01-28T11:37:23;2.40;99.90
19968;DHT22;10145;49.152;9.282;2023-01-28T11:40:03;2.50;99.90
19968;DHT22;10145;49.152;9.282;2023-01-28T11:42:38;2.50;99.90
19968;DHT22;10145;49.152;9.282;2023-01-28T11:45:14;2.40;99.90
19968;DHT22;10145;49.152;9.282;2023-01-28T11:48:13;2.40;99.90
19968;DHT22;10145;49.152;9.282;2023-01-28T11:50:49;2.30;99.90
19968;DHT22;10145;49.152;9.282;2023-01-28T11:56:12;2.40;99.90
19968;DHT22;10145;49.152;9.282;2023-01-28T12:06:47;2.50;99.90
19968;DHT22;10145;49.152;9.282;2023-01-28T12:23:04;2.60;99.90
19968;DHT22;10145;49.152;9.282;2023-01-28T12:31:36;2.60;99.90
19968;DHT22;10145;49.152;9.282;2023-01-28T12:42:35;2.60;99.90
19968;DHT22;10145;49.152;9.282;2023-01-28T12:45:28;2.60;99.90
19968;DHT22;10145;49.152;9.282;2023-01-28T12:48:01;2.70;99.90
19968;DHT22;10145;49.152;9.282;2023-01-28T12:50:44;2.70;99.90
19968;DHT22;10145;49.152;9.282;2023-01-28T12:53:18;2.70;99.90
19968;DHT22;10145;49.152;9.282;2023-01-28T12:55:55;2.60;99.90
19968;DHT22;10145;49.152;9.282;2023-01-28T12:58:38;2.70;99.90
19968;DHT22;10145;49.152;9.282;2023-01-28T13:01:09;2.80;99.90
19968;DHT22;10145;49.152;9.282;2023-01-28T13:03:44;2.90;99.90
19968;DHT22;10145;49.152;9.282;2023-01-28T13:06:17;3.00;99.90
19968;DHT22;10145;49.152;9.282;2023-01-28T13:08:43;3.10;99.90
19968;DHT22;10145;49.152;9.282;2023-01-28T13:11:14;3.40;99.90
19968;DHT22;10145;49.152;9.282;2023-01-28T13:13:41;3.40;99.90
19968;DHT22;10145;49.152;9.282;2023-01-28T13:16:10;3.50;99.90
19968;DHT22;10145;49.152;9.282;2023-01-28T13:21:05;3.60;99.90
19968;DHT22;10145;49.152;9.282;2023-01-28T13:28:51;3.70;99.90
19968;DHT22;10145;49.152;9.282;2023-01-28T13:31:22;3.60;99.90
19968;DHT22;10145;49.152;9.282;2023-01-28T13:36:42;3.70;99.90
19968;DHT22;10145;49.152;9.282;2023-01-28T13:39:19;3.70;99.90
19968;DHT22;10145;49.152;9.282;2023-01-28T13:41:51;3.70;99.90
19968;DHT22;10145;49.152;9.282;2023-01-28T13:46:53;3.50;99.90
19968;DHT22;10145;49.152;9.282;2023-01-28T13:49:28;3.50;99.90
19968;DHT22;10145;49.152;9.282;2023-01-28T13:52:00;3.50;99.90
19968;DHT22;10145;49.152;9.282;2023-01-28T13:54:30;3.50;99.90
19968;DHT22;10145;49.152;9.282;2023-01-28T13:57:07;3.50;99.90
19968;DHT22;10145;49.152;9.282;2023-01-28T13:59:53;3.40;99.90
19968;DHT22;10145;49.152;9.282;2023-01-28T14:08:21;3.20;99.90
19968;DHT22;10145;49.152;9.282;2023-01-28T14:11:14;3.20;99.90
19968;DHT22;10145;49.152;9.282;2023-01-28T14:13:57;3.20;99.90
19968;DHT22;10145;49.152;9.282;2023-01-28T14:16:39;3.20;99.90
19968;DHT22;10145;49.152;9.282;2023-01-28T14:19:10;3.10;99.90
19968;DHT22;10145;49.152;9.282;2023-01-28T14:21:37;3.00;99.90
19968;DHT22;10145;49.152;9.282;2023-01-28T14:24:03;2.90;99.90
19968;DHT22;10145;49.152;9.282;2023-01-28T14:26:57;2.90;99.90
19968;DHT22;10145;49.152;9.282;2023-01-28T14:32:14;2.80;99.90
19968;DHT22;10145;49.152;9.282;2023-01-28T14:34:42;2.80;99.90
19968;DHT22;10145;49.152;9.282;2023-01-28T14:37:12;2.70;99.90
19968;DHT22;10145;49.152;9.282;2023-01-28T14:39:45;2.70;99.90
19968;DHT22;10145;49.152;9.282;2023-01-28T14:42:18;2.70;99.90
19968;DHT22;10145;49.152;9.282;2023-01-28T14:44:45;2.60;99.90
19968;DHT22;10145;49.152;9.282;2023-01-28T14:50:59;2.60;99.90
19968;DHT22;10145;49.152;9.282;2023-01-28T14:59:00;2.70;99.90
19968;DHT22;10145;49.152;9.282;2023-01-28T15:01:28;2.60;99.90
19968;DHT22;10145;49.152;9.282;2023-01-28T15:03:55;2.60;99.90
19968;DHT22;10145;49.152;9.282;2023-01-28T15:06:33;2.60;99.90
19968;DHT22;10145;49.152;9.282;2023-01-28T15:09:07;2.50;99.90
19968;DHT22;10145;49.152;9.282;2023-01-28T15:11:36;2.50;99.90
19968;DHT22;10145;49.152;9.282;2023-01-28T15:14:03;2.50;99.90
19968;DHT22;10145;49.152;9.282;2023-01-28T15:16:29;2.50;99.90
19968;DHT22;10145;49.152;9.282;2023-01-28T15:18:58;2.40;99.90
19968;DHT22;10145;49.152;9.282;2023-01-28T15:21:26;2.40;99.90
19968;DHT22;10145;49.152;9.282;2023-01-28T15:23:57;2.50;99.90
19968;DHT22;10145;49.152;9.282;2023-01-28T15:26:31;2.30;99.90
19968;DHT22;10145;49.152;9.282;2023-01-28T15:28:58;2.30;99.90
19968;DHT22;10145;49.152;9.282;2023-01-28T15:31:33;2.30;99.90
19968;DHT22;10145;49.152;9.282;2023-01-28T15:34:03;2.30;99.90
19968;DHT22;10145;49.152;9.282;2023-01-28T15:36:30;2.30;99.90
19968;DHT22;10145;49.152;9.282;2023-01-28T15:38:56;2.30;99.90
19968;DHT22;10145;49.152;9.282;2023-01-28T15:41:27;2.20;99.90
19968;DHT22;10145;49.152;9.282;2023-01-28T15:43:53;2.20;99.90
19968;DHT22;10145;49.152;9.282;2023-01-28T15:46:21;2.20;99.90
19968;DHT22;10145;49.152;9.282;2023-01-28T15:48:54;2.20;99.90
19968;DHT22;10145;49.152;9.282;2023-01-28T15:51:27;2.10;99.90
19968;DHT22;10145;49.152;9.282;2023-01-28T15:53:58;2.10;99.90
19968;DHT22;10145;49.152;9.282;2023-01-28T15:56:29;2.10;99.90
19968;DHT22;10145;49.152;9.282;2023-01-28T15:58:55;2.10;99.90
19968;DHT22;10145;49.152;9.282;2023-01-28T16:01:32;2.10;99.90
19968;DHT22;10145;49.152;9.282;2023-01-28T16:04:02;2.00;99.90
19968;DHT22;10145;49.152;9.282;2023-01-28T16:06:39;1.90;99.90
19968;DHT22;10145;49.152;9.282;2023-01-28T16:09:26;1.90;99.90
19968;DHT22;10145;49.152;9.282;2023-01-28T16:11:59;1.90;99.90
19968;DHT22;10145;49.152;9.282;2023-01-28T16:14:29;1.80;99.90
19968;DHT22;10145;49.152;9.282;2023-01-28T16:16:56;1.80;99.90
19968;DHT22;10145;49.152;9.282;2023-01-28T16:19:32;1.70;99.90
19968;DHT22;10145;49.152;9.282;2023-01-28T16:21:58;1.70;99.90
19968;DHT22;10145;49.152;9.282;2023-01-28T16:24:25;1.70;99.90
19968;DHT22;10145;49.152;9.282;2023-01-28T16:29:26;1.70;99.90
19968;DHT22;10145;49.152;9.282;2023-01-28T16:31:52;1.70;99.90
19968;DHT22;10145;49.152;9.282;2023-01-28T16:34:18;1.70;99.90
19968;DHT22;10145;49.152;9.282;2023-01-28T16:36:43;1.70;99.90
19968;DHT22;10145;49.152;9.282;2023-01-28T16:39:09;1.70;99.90
19968;DHT22;10145;49.152;9.282;2023-01-28T16:41:39;1.60;99.90
19968;DHT22;10145;49.152;9.282;2023-01-28T16:44:05;1.60;99.90
19968;DHT22;10145;49.152;9.282;2023-01-28T16:46:31;1.60;99.90
19968;DHT22;10145;49.152;9.282;2023-01-28T16:49:01;1.60;99.90
19968;DHT22;10145;49.152;9.282;2023-01-28T16:51:27;1.60;99.90
19968;DHT22;10145;49.152;9.282;2023-01-28T16:53:53;1.60;99.90
19968;DHT22;10145;49.152;9.282;2023-01-28T16:56:22;1.60;99.90
19968;DHT22;10145;49.152;9.282;2023-01-28T16:58:48;1.60;99.90
19968;DHT22;10145;49.152;9.282;2023-01-28T17:01:13;1.60;99.90
19968;DHT22;10145;49.152;9.282;2023-01-28T17:03:39;1.60;99.90
19968;DHT22;10145;49.152;9.282;2023-01-28T17:06:14;1.60;99.90
19968;DHT22;10145;49.152;9.282;2023-01-28T17:08:40;1.60;99.90
19968;DHT22;10145;49.152;9.282;2023-01-28T17:11:06;1.60;99.90
19968;DHT22;10145;49.152;9.282;2023-01-28T17:13:32;1.50;99.90
19968;DHT22;10145;49.152;9.282;2023-01-28T17:16:02;1.50;99.90
19968;DHT22;10145;49.152;9.282;2023-01-28T17:18:28;1.50;99.90
19968;DHT22;10145;49.152;9.282;2023-01-28T17:20:54;1.50;99.90
19968;DHT22;10145;49.152;9.282;2023-01-28T17:23:24;1.60;99.90
19968;DHT22;10145;49.152;9.282;2023-01-28T17:25:49;1.60;99.90
19968;DHT22;10145;49.152;9.282;2023-01-28T17:28:15;1.60;99.90
19968;DHT22;10145;49.152;9.282;2023-01-28T17:30:41;1.60;99.90
19968;DHT22;10145;49.152;9.282;2023-01-28T17:33:07;1.60;99.90
19968;DHT22;10145;49.152;9.282;2023-01-28T17:35:33;1.60;99.90
19968;DHT22;10145;49.152;9.282;2023-01-28T17:38:03;1.50;99.90
19968;DHT22;10145;49.152;9.282;2023-01-28T17:40:29;1.50;99.90
19968;DHT22;10145;49.152;9.282;2023-01-28T17:42:55;1.50;99.90
19968;DHT22;10145;49.152;9.282;2023-01-28T17:45:21;1.50;99.90
19968;DHT22;10145;49.152;9.282;2023-01-28T17:47:47;1.40;99.90
19968;DHT22;10145;49.152;9.282;2023-01-28T17:50:12;1.40;99.90
19968;DHT22;10145;49.152;9.282;2023-01-28T17:52:38;1.40;99.90
19968;DHT22;10145;49.152;9.282;2023-01-28T17:55:05;1.40;99.90
19968;DHT22;10145;49.152;9.282;2023-01-28T17:57:31;1.40;99.90
19968;DHT22;10145;49.152;9.282;2023-01-28T17:59:57;1.40;99.90
19968;DHT22;10145;49.152;9.282;2023-01-28T18:02:22;1.40;99.90
19968;DHT22;10145;49.152;9.282;2023-01-28T18:04:48;1.40;99.90
19968;DHT22;10145;49.152;9.282;2023-01-28T18:07:13;1.50;99.90